sensor_id;sensor_type;location;lat;lon;timestamp;temperature;humidity
73277;DHT22;61501;43.316;5.372;2024-03-25T00:01:01;11.50;57.00
73277;DHT22;61501;43.316;5.372;2024-03-25T00:03:26;11.50;56.80
73277;DHT22;61501;43.316;5.372;2024-03-25T00:05:52;11.40;56.10
73277;DHT22;61501;43.316;5.372;2024-03-25T00:08:17;11.40;56.10
73277;DHT22;61501;43.316;5.372;2024-03-25T00:10:43;11.40;56.40
73277;DHT22;61501;43.316;5.372;2024-03-25T00:13:09;11.40;56.30
73277;DHT22;61501;43.316;5.372;2024-03-25T00:15:36;11.30;56.50
73277;DHT22;61501;43.316;5.372;2024-03-25T00:18:03;11.30;56.40
73277;DHT22;61501;43.316;5.372;2024-03-25T00:20:29;11.30;57.30
73277;DHT22;61501;43.316;5.372;2024-03-25T00:22:55;11.30;57.20
73277;DHT22;61501;43.316;5.372;2024-03-25T00:25:20;11.30;57.00
73277;DHT22;61501;43.316;5.372;2024-03-25T00:27:46;11.20;56.70
73277;DHT22;61501;43.316;5.372;2024-03-25T00:30:12;11.20;56.90
73277;DHT22;61501;43.316;5.372;2024-03-25T00:32:38;11.20;56.50
73277;DHT22;61501;43.316;5.372;2024-03-25T00:35:04;11.30;56.80
73277;DHT22;61501;43.316;5.372;2024-03-25T00:37:29;11.30;56.20
73277;DHT22;61501;43.316;5.372;2024-03-25T00:39:55;11.30;56.80
73277;DHT22;61501;43.316;5.372;2024-03-25T00:42:21;11.40;58.00
73277;DHT22;61501;43.316;5.372;2024-03-25T00:44:46;11.50;56.20
73277;DHT22;61501;43.316;5.372;2024-03-25T00:47:12;11.50;57.30
73277;DHT22;61501;43.316;5.372;2024-03-25T00:49:38;11.40;56.10
73277;DHT22;61501;43.316;5.372;2024-03-25T00:52:04;11.40;57.20
73277;DHT22;61501;43.316;5.372;2024-03-25T00:54:30;11.50;57.90
73277;DHT22;61501;43.316;5.372;2024-03-25T00:56:55;11.60;56.90
73277;DHT22;61501;43.316;5.372;2024-03-25T00:59:21;11.50;56.40
73277;DHT22;61501;43.316;5.372;2024-03-25T01:01:47;11.50;56.10
73277;DHT22;61501;43.316;5.372;2024-03-25T01:04:12;11.50;56.90
73277;DHT22;61501;43.316;5.372;2024-03-25T01:06:38;11.40;57.70
73277;DHT22;61501;43.316;5.372;2024-03-25T01:09:04;11.50;57.00
73277;DHT22;61501;43.316;5.372;2024-03-25T01:11:30;11.40;56.30
73277;DHT22;61501;43.316;5.372;2024-03-25T01:13:56;11.40;57.50
73277;DHT22;61501;43.316;5.372;2024-03-25T01:16:22;11.30;58.60
73277;DHT22;61501;43.316;5.372;2024-03-25T01:18:47;11.30;57.60
73277;DHT22;61501;43.316;5.372;2024-03-25T01:21:13;11.20;58.40
73277;DHT22;61501;43.316;5.372;2024-03-25T01:23:40;11.20;58.60
73277;DHT22;61501;43.316;5.372;2024-03-25T01:26:06;11.10;58.70
73277;DHT22;61501;43.316;5.372;2024-03-25T01:28:32;11.00;58.50
73277;DHT22;61501;43.316;5.372;2024-03-25T01:30:57;11.00;60.00
73277;DHT22;61501;43.316;5.372;2024-03-25T01:33:26;10.90;60.00
73277;DHT22;61501;43.316;5.372;2024-03-25T01:35:52;10.90;60.60
73277;DHT22;61501;43.316;5.372;2024-03-25T01:38:20;10.90;60.30
73277;DHT22;61501;43.316;5.372;2024-03-25T01:40:45;10.90;61.70
73277;DHT22;61501;43.316;5.372;2024-03-25T01:43:11;10.80;61.40
73277;DHT22;61501;43.316;5.372;2024-03-25T01:45:37;10.60;63.10
73277;DHT22;61501;43.316;5.372;2024-03-25T01:48:06;10.60;63.80
73277;DHT22;61501;43.316;5.372;2024-03-25T01:50:37;10.60;64.70
73277;DHT22;61501;43.316;5.372;2024-03-25T01:53:04;10.50;64.10
73277;DHT22;61501;43.316;5.372;2024-03-25T01:55:32;10.20;64.80
73277;DHT22;61501;43.316;5.372;2024-03-25T01:58:00;10.10;66.50
73277;DHT22;61501;43.316;5.372;2024-03-25T02:00:26;10.10;67.50
73277;DHT22;61501;43.316;5.372;2024-03-25T02:02:52;10.10;69.20
73277;DHT22;61501;43.316;5.372;2024-03-25T02:05:19;10.10;70.10
73277;DHT22;61501;43.316;5.372;2024-03-25T02:07:46;10.10;71.50
73277;DHT22;61501;43.316;5.372;2024-03-25T02:10:12;10.10;71.00
73277;DHT22;61501;43.316;5.372;2024-03-25T02:12:42;10.10;72.20
73277;DHT22;61501;43.316;5.372;2024-03-25T02:15:08;10.20;71.20
73277;DHT22;61501;43.316;5.372;2024-03-25T02:17:35;10.20;70.70
73277;DHT22;61501;43.316;5.372;2024-03-25T02:20:01;10.30;70.70
73277;DHT22;61501;43.316;5.372;2024-03-25T02:22:28;10.40;69.50
73277;DHT22;61501;43.316;5.372;2024-03-25T02:24:57;10.40;70.30
73277;DHT22;61501;43.316;5.372;2024-03-25T02:27:23;10.30;70.60
73277;DHT22;61501;43.316;5.372;2024-03-25T02:29:50;10.30;68.60
73277;DHT22;61501;43.316;5.372;2024-03-25T02:32:15;10.30;69.00
73277;DHT22;61501;43.316;5.372;2024-03-25T02:34:46;10.30;68.30
73277;DHT22;61501;43.316;5.372;2024-03-25T02:37:13;10.30;67.80
73277;DHT22;61501;43.316;5.372;2024-03-25T02:39:38;10.30;68.60
73277;DHT22;61501;43.316;5.372;2024-03-25T02:42:04;10.20;67.80
73277;DHT22;61501;43.316;5.372;2024-03-25T02:44:33;10.20;68.10
73277;DHT22;61501;43.316;5.372;2024-03-25T02:47:00;10.20;69.10
73277;DHT22;61501;43.316;5.372;2024-03-25T02:49:26;10.20;68.80
73277;DHT22;61501;43.316;5.372;2024-03-25T02:51:53;10.20;68.10
73277;DHT22;61501;43.316;5.372;2024-03-25T02:54:18;10.20;68.10
73277;DHT22;61501;43.316;5.372;2024-03-25T02:56:44;10.20;67.50
73277;DHT22;61501;43.316;5.372;2024-03-25T02:59:10;10.20;67.60
73277;DHT22;61501;43.316;5.372;2024-03-25T03:01:35;10.30;67.30
73277;DHT22;61501;43.316;5.372;2024-03-25T03:04:01;10.20;67.40
73277;DHT22;61501;43.316;5.372;2024-03-25T03:06:27;10.20;67.20
73277;DHT22;61501;43.316;5.372;2024-03-25T03:08:52;10.10;67.70
73277;DHT22;61501;43.316;5.372;2024-03-25T03:11:18;10.00;68.20
73277;DHT22;61501;43.316;5.372;2024-03-25T03:13:44;10.00;68.70
73277;DHT22;61501;43.316;5.372;2024-03-25T03:16:09;10.10;68.20
73277;DHT22;61501;43.316;5.372;2024-03-25T03:18:35;10.00;67.50
73277;DHT22;61501;43.316;5.372;2024-03-25T03:21:00;10.00;68.20
73277;DHT22;61501;43.316;5.372;2024-03-25T03:23:26;10.00;67.70
73277;DHT22;61501;43.316;5.372;2024-03-25T03:25:52;9.90;67.10
73277;DHT22;61501;43.316;5.372;2024-03-25T03:28:18;9.80;67.30
73277;DHT22;61501;43.316;5.372;2024-03-25T03:30:44;9.90;67.00
73277;DHT22;61501;43.316;5.372;2024-03-25T03:33:09;9.90;67.70
73277;DHT22;61501;43.316;5.372;2024-03-25T03:35:35;9.90;67.30
73277;DHT22;61501;43.316;5.372;2024-03-25T03:38:01;10.00;68.60
73277;DHT22;61501;43.316;5.372;2024-03-25T03:40:29;10.00;66.10
73277;DHT22;61501;43.316;5.372;2024-03-25T03:42:55;9.90;66.20
73277;DHT22;61501;43.316;5.372;2024-03-25T03:45:24;9.80;67.00
73277;DHT22;61501;43.316;5.372;2024-03-25T03:47:49;9.90;67.00
73277;DHT22;61501;43.316;5.372;2024-03-25T03:50:15;9.90;67.00
73277;DHT22;61501;43.316;5.372;2024-03-25T03:52:41;9.90;67.60
73277;DHT22;61501;43.316;5.372;2024-03-25T03:55:07;10.00;67.00
73277;DHT22;61501;43.316;5.372;2024-03-25T03:57:32;9.90;67.60
73277;DHT22;61501;43.316;5.372;2024-03-25T03:59:58;9.90;68.00
73277;DHT22;61501;43.316;5.372;2024-03-25T04:02:27;9.80;68.40
73277;DHT22;61501;43.316;5.372;2024-03-25T04:04:54;9.90;68.20
73277;DHT22;61501;43.316;5.372;2024-03-25T04:07:19;9.80;68.60
73277;DHT22;61501;43.316;5.372;2024-03-25T04:09:46;9.90;68.50
73277;DHT22;61501;43.316;5.372;2024-03-25T04:12:11;9.80;68.70
73277;DHT22;61501;43.316;5.372;2024-03-25T04:14:37;9.90;69.10
73277;DHT22;61501;43.316;5.372;2024-03-25T04:17:04;9.90;68.90
73277;DHT22;61501;43.316;5.372;2024-03-25T04:19:30;9.80;69.00
73277;DHT22;61501;43.316;5.372;2024-03-25T04:21:56;9.80;68.50
73277;DHT22;61501;43.316;5.372;2024-03-25T04:24:21;9.80;68.00
73277;DHT22;61501;43.316;5.372;2024-03-25T04:26:47;9.80;68.50
73277;DHT22;61501;43.316;5.372;2024-03-25T04:29:14;9.70;67.80
73277;DHT22;61501;43.316;5.372;2024-03-25T04:31:40;9.70;68.60
73277;DHT22;61501;43.316;5.372;2024-03-25T04:34:06;9.70;67.90
73277;DHT22;61501;43.316;5.372;2024-03-25T04:36:31;9.70;67.00
73277;DHT22;61501;43.316;5.372;2024-03-25T04:38:57;9.80;66.20
73277;DHT22;61501;43.316;5.372;2024-03-25T04:41:23;9.80;67.00
73277;DHT22;61501;43.316;5.372;2024-03-25T04:43:48;9.80;65.90
73277;DHT22;61501;43.316;5.372;2024-03-25T04:46:14;9.80;66.20
73277;DHT22;61501;43.316;5.372;2024-03-25T04:48:40;9.80;65.90
73277;DHT22;61501;43.316;5.372;2024-03-25T04:51:06;9.80;65.20
73277;DHT22;61501;43.316;5.372;2024-03-25T04:53:31;9.80;65.60
73277;DHT22;61501;43.316;5.372;2024-03-25T04:55:57;9.80;64.90
73277;DHT22;61501;43.316;5.372;2024-03-25T04:58:23;9.80;65.40
73277;DHT22;61501;43.316;5.372;2024-03-25T05:00:48;9.70;65.10
73277;DHT22;61501;43.316;5.372;2024-03-25T05:03:14;9.70;65.30
73277;DHT22;61501;43.316;5.372;2024-03-25T05:05:40;9.70;65.50
73277;DHT22;61501;43.316;5.372;2024-03-25T05:08:06;9.70;65.80
73277;DHT22;61501;43.316;5.372;2024-03-25T05:10:32;9.70;66.00
73277;DHT22;61501;43.316;5.372;2024-03-25T05:12:57;9.70;65.80
73277;DHT22;61501;43.316;5.372;2024-03-25T05:15:23;9.70;65.20
73277;DHT22;61501;43.316;5.372;2024-03-25T05:17:48;9.70;65.70
73277;DHT22;61501;43.316;5.372;2024-03-25T05:20:14;9.80;65.70
73277;DHT22;61501;43.316;5.372;2024-03-25T05:22:40;9.80;66.10
73277;DHT22;61501;43.316;5.372;2024-03-25T05:25:05;9.80;66.30
73277;DHT22;61501;43.316;5.372;2024-03-25T05:27:31;9.80;66.10
73277;DHT22;61501;43.316;5.372;2024-03-25T05:29:57;9.70;66.10
73277;DHT22;61501;43.316;5.372;2024-03-25T05:32:22;9.60;66.60
73277;DHT22;61501;43.316;5.372;2024-03-25T05:34:48;9.60;65.70
73277;DHT22;61501;43.316;5.372;2024-03-25T05:37:14;9.60;66.00
73277;DHT22;61501;43.316;5.372;2024-03-25T05:39:40;9.70;65.60
73277;DHT22;61501;43.316;5.372;2024-03-25T05:42:06;9.70;65.70
73277;DHT22;61501;43.316;5.372;2024-03-25T05:44:32;9.70;65.90
73277;DHT22;61501;43.316;5.372;2024-03-25T05:46:57;9.70;65.60
73277;DHT22;61501;43.316;5.372;2024-03-25T05:49:26;9.80;66.30
73277;DHT22;61501;43.316;5.372;2024-03-25T05:51:52;9.90;65.90
73277;DHT22;61501;43.316;5.372;2024-03-25T05:54:17;10.10;65.20
73277;DHT22;61501;43.316;5.372;2024-03-25T05:56:43;10.30;65.10
73277;DHT22;61501;43.316;5.372;2024-03-25T05:59:09;10.40;64.00
73277;DHT22;61501;43.316;5.372;2024-03-25T06:01:35;10.40;63.40
73277;DHT22;61501;43.316;5.372;2024-03-25T06:04:03;10.50;63.20
73277;DHT22;61501;43.316;5.372;2024-03-25T06:06:29;10.50;63.10
73277;DHT22;61501;43.316;5.372;2024-03-25T06:08:54;10.40;63.00
73277;DHT22;61501;43.316;5.372;2024-03-25T06:11:20;10.40;63.40
73277;DHT22;61501;43.316;5.372;2024-03-25T06:13:46;10.40;63.60
73277;DHT22;61501;43.316;5.372;2024-03-25T06:16:13;10.30;63.60
73277;DHT22;61501;43.316;5.372;2024-03-25T06:18:39;10.30;64.20
73277;DHT22;61501;43.316;5.372;2024-03-25T06:21:05;10.30;63.60
73277;DHT22;61501;43.316;5.372;2024-03-25T06:23:31;10.40;64.40
73277;DHT22;61501;43.316;5.372;2024-03-25T06:25:57;10.40;63.60
73277;DHT22;61501;43.316;5.372;2024-03-25T06:28:23;10.40;63.20
73277;DHT22;61501;43.316;5.372;2024-03-25T06:30:49;10.50;63.10
73277;DHT22;61501;43.316;5.372;2024-03-25T06:33:34;10.60;62.90
73277;DHT22;61501;43.316;5.372;2024-03-25T06:36:19;10.60;63.40
73277;DHT22;61501;43.316;5.372;2024-03-25T06:38:45;10.80;63.30
73277;DHT22;61501;43.316;5.372;2024-03-25T06:41:12;10.90;63.10
73277;DHT22;61501;43.316;5.372;2024-03-25T06:43:38;11.10;62.50
73277;DHT22;61501;43.316;5.372;2024-03-25T06:46:05;11.10;62.20
73277;DHT22;61501;43.316;5.372;2024-03-25T06:48:31;11.20;62.30
73277;DHT22;61501;43.316;5.372;2024-03-25T06:50:58;11.20;62.10
73277;DHT22;61501;43.316;5.372;2024-03-25T06:53:24;11.30;62.60
73277;DHT22;61501;43.316;5.372;2024-03-25T06:55:59;11.30;62.10
73277;DHT22;61501;43.316;5.372;2024-03-25T06:58:27;11.40;60.70
73277;DHT22;61501;43.316;5.372;2024-03-25T07:00:53;11.40;60.10
73277;DHT22;61501;43.316;5.372;2024-03-25T07:03:21;11.50;59.80
73277;DHT22;61501;43.316;5.372;2024-03-25T07:05:47;11.50;59.10
73277;DHT22;61501;43.316;5.372;2024-03-25T07:08:13;11.60;59.30
73277;DHT22;61501;43.316;5.372;2024-03-25T07:10:41;11.60;59.10
73277;DHT22;61501;43.316;5.372;2024-03-25T07:13:07;11.80;58.10
73277;DHT22;61501;43.316;5.372;2024-03-25T07:15:32;11.80;58.20
73277;DHT22;61501;43.316;5.372;2024-03-25T07:17:58;11.90;58.60
73277;DHT22;61501;43.316;5.372;2024-03-25T07:20:25;11.90;56.90
73277;DHT22;61501;43.316;5.372;2024-03-25T07:22:52;11.90;58.70
73277;DHT22;61501;43.316;5.372;2024-03-25T07:25:21;12.00;58.00
73277;DHT22;61501;43.316;5.372;2024-03-25T07:27:46;12.10;57.60
73277;DHT22;61501;43.316;5.372;2024-03-25T07:30:12;12.30;57.00
73277;DHT22;61501;43.316;5.372;2024-03-25T07:32:38;12.30;56.70
73277;DHT22;61501;43.316;5.372;2024-03-25T07:35:04;12.40;57.20
73277;DHT22;61501;43.316;5.372;2024-03-25T07:37:30;12.30;56.40
73277;DHT22;61501;43.316;5.372;2024-03-25T07:39:56;12.50;57.70
73277;DHT22;61501;43.316;5.372;2024-03-25T07:42:22;12.60;58.00
73277;DHT22;61501;43.316;5.372;2024-03-25T07:44:47;12.80;57.50
73277;DHT22;61501;43.316;5.372;2024-03-25T07:47:13;12.80;58.10
73277;DHT22;61501;43.316;5.372;2024-03-25T07:49:38;12.80;57.90
73277;DHT22;61501;43.316;5.372;2024-03-25T07:52:05;13.00;57.60
73277;DHT22;61501;43.316;5.372;2024-03-25T07:54:31;13.00;59.20
73277;DHT22;61501;43.316;5.372;2024-03-25T07:56:57;13.20;58.10
73277;DHT22;61501;43.316;5.372;2024-03-25T07:59:22;13.30;56.40
73277;DHT22;61501;43.316;5.372;2024-03-25T08:01:48;13.40;58.10
73277;DHT22;61501;43.316;5.372;2024-03-25T08:04:14;13.40;56.50
73277;DHT22;61501;43.316;5.372;2024-03-25T08:06:39;13.60;56.90
73277;DHT22;61501;43.316;5.372;2024-03-25T08:09:05;13.80;55.80
73277;DHT22;61501;43.316;5.372;2024-03-25T08:11:31;13.90;54.90
73277;DHT22;61501;43.316;5.372;2024-03-25T08:13:57;13.90;55.40
73277;DHT22;61501;43.316;5.372;2024-03-25T08:16:23;14.00;54.10
73277;DHT22;61501;43.316;5.372;2024-03-25T08:18:49;14.00;53.80
73277;DHT22;61501;43.316;5.372;2024-03-25T08:21:15;14.00;54.30
73277;DHT22;61501;43.316;5.372;2024-03-25T08:23:44;14.00;55.20
73277;DHT22;61501;43.316;5.372;2024-03-25T08:26:09;14.00;55.00
73277;DHT22;61501;43.316;5.372;2024-03-25T08:28:35;14.20;55.70
73277;DHT22;61501;43.316;5.372;2024-03-25T08:31:00;14.10;55.90
73277;DHT22;61501;43.316;5.372;2024-03-25T08:33:26;14.00;55.30
73277;DHT22;61501;43.316;5.372;2024-03-25T08:35:54;14.10;56.00
73277;DHT22;61501;43.316;5.372;2024-03-25T08:38:19;14.20;55.90
73277;DHT22;61501;43.316;5.372;2024-03-25T08:40:45;14.20;56.20
73277;DHT22;61501;43.316;5.372;2024-03-25T08:43:10;14.20;55.80
73277;DHT22;61501;43.316;5.372;2024-03-25T08:45:36;14.40;55.20
73277;DHT22;61501;43.316;5.372;2024-03-25T08:48:02;14.40;56.10
73277;DHT22;61501;43.316;5.372;2024-03-25T08:50:27;14.60;55.60
73277;DHT22;61501;43.316;5.372;2024-03-25T08:52:53;14.70;55.90
73277;DHT22;61501;43.316;5.372;2024-03-25T08:55:19;14.80;54.80
73277;DHT22;61501;43.316;5.372;2024-03-25T08:57:45;14.90;55.20
73277;DHT22;61501;43.316;5.372;2024-03-25T09:00:11;15.10;55.00
73277;DHT22;61501;43.316;5.372;2024-03-25T09:02:37;15.10;55.20
73277;DHT22;61501;43.316;5.372;2024-03-25T09:05:03;15.10;55.90
73277;DHT22;61501;43.316;5.372;2024-03-25T09:07:35;15.10;55.70
73277;DHT22;61501;43.316;5.372;2024-03-25T09:10:01;15.30;56.10
73277;DHT22;61501;43.316;5.372;2024-03-25T09:12:45;15.20;56.30
73277;DHT22;61501;43.316;5.372;2024-03-25T09:15:11;15.10;57.80
73277;DHT22;61501;43.316;5.372;2024-03-25T09:17:37;15.30;58.10
73277;DHT22;61501;43.316;5.372;2024-03-25T09:20:03;15.40;57.90
73277;DHT22;61501;43.316;5.372;2024-03-25T09:22:49;15.40;58.30
73277;DHT22;61501;43.316;5.372;2024-03-25T09:25:15;15.50;58.60
73277;DHT22;61501;43.316;5.372;2024-03-25T09:27:45;15.50;58.10
73277;DHT22;61501;43.316;5.372;2024-03-25T09:30:11;15.70;58.80
73277;DHT22;61501;43.316;5.372;2024-03-25T09:32:36;15.90;58.10
73277;DHT22;61501;43.316;5.372;2024-03-25T09:35:03;16.00;58.30
73277;DHT22;61501;43.316;5.372;2024-03-25T09:37:29;16.00;58.80
73277;DHT22;61501;43.316;5.372;2024-03-25T09:39:54;15.70;61.00
73277;DHT22;61501;43.316;5.372;2024-03-25T09:42:26;15.30;61.60
73277;DHT22;61501;43.316;5.372;2024-03-25T09:44:54;15.20;62.50
73277;DHT22;61501;43.316;5.372;2024-03-25T09:47:23;15.30;62.90
73277;DHT22;61501;43.316;5.372;2024-03-25T09:49:50;15.80;62.60
73277;DHT22;61501;43.316;5.372;2024-03-25T09:52:17;15.60;61.10
73277;DHT22;61501;43.316;5.372;2024-03-25T09:54:44;15.70;61.50
73277;DHT22;61501;43.316;5.372;2024-03-25T09:57:10;15.80;61.00
73277;DHT22;61501;43.316;5.372;2024-03-25T09:59:36;15.90;60.50
73277;DHT22;61501;43.316;5.372;2024-03-25T10:02:02;15.80;63.20
73277;DHT22;61501;43.316;5.372;2024-03-25T10:04:29;15.70;63.80
73277;DHT22;61501;43.316;5.372;2024-03-25T10:06:55;15.80;65.80
73277;DHT22;61501;43.316;5.372;2024-03-25T10:09:21;15.50;67.60
73277;DHT22;61501;43.316;5.372;2024-03-25T10:11:48;15.60;69.10
73277;DHT22;61501;43.316;5.372;2024-03-25T10:14:15;15.80;69.10
73277;DHT22;61501;43.316;5.372;2024-03-25T10:16:41;15.90;67.50
73277;DHT22;61501;43.316;5.372;2024-03-25T10:19:07;16.00;66.70
73277;DHT22;61501;43.316;5.372;2024-03-25T10:21:33;16.00;66.30
73277;DHT22;61501;43.316;5.372;2024-03-25T10:23:59;16.20;65.80
73277;DHT22;61501;43.316;5.372;2024-03-25T10:26:29;16.30;66.40
73277;DHT22;61501;43.316;5.372;2024-03-25T10:29:06;16.50;65.90
73277;DHT22;61501;43.316;5.372;2024-03-25T10:31:32;16.40;63.80
73277;DHT22;61501;43.316;5.372;2024-03-25T10:33:58;16.40;62.90
73277;DHT22;61501;43.316;5.372;2024-03-25T10:36:24;16.60;62.40
73277;DHT22;61501;43.316;5.372;2024-03-25T10:38:54;16.80;61.40
73277;DHT22;61501;43.316;5.372;2024-03-25T10:41:21;16.80;61.00
73277;DHT22;61501;43.316;5.372;2024-03-25T10:43:47;17.10;61.10
73277;DHT22;61501;43.316;5.372;2024-03-25T10:46:17;17.00;60.30
73277;DHT22;61501;43.316;5.372;2024-03-25T10:48:51;17.20;60.90
73277;DHT22;61501;43.316;5.372;2024-03-25T10:51:19;17.40;58.90
73277;DHT22;61501;43.316;5.372;2024-03-25T10:53:46;17.40;60.20
73277;DHT22;61501;43.316;5.372;2024-03-25T10:56:12;17.50;59.00
73277;DHT22;61501;43.316;5.372;2024-03-25T10:58:39;17.50;59.70
73277;DHT22;61501;43.316;5.372;2024-03-25T11:01:06;17.30;61.10
73277;DHT22;61501;43.316;5.372;2024-03-25T11:03:33;17.40;61.40
73277;DHT22;61501;43.316;5.372;2024-03-25T11:05:59;17.60;60.40
73277;DHT22;61501;43.316;5.372;2024-03-25T11:08:31;17.80;60.00
73277;DHT22;61501;43.316;5.372;2024-03-25T11:10:57;17.60;59.90
73277;DHT22;61501;43.316;5.372;2024-03-25T11:13:23;17.50;60.50
73277;DHT22;61501;43.316;5.372;2024-03-25T11:15:49;17.70;59.30
73277;DHT22;61501;43.316;5.372;2024-03-25T11:18:16;17.50;58.50
73277;DHT22;61501;43.316;5.372;2024-03-25T11:20:42;17.50;58.30
73277;DHT22;61501;43.316;5.372;2024-03-25T11:23:09;17.50;58.90
73277;DHT22;61501;43.316;5.372;2024-03-25T11:25:36;17.30;57.80
73277;DHT22;61501;43.316;5.372;2024-03-25T11:28:02;17.40;59.20
73277;DHT22;61501;43.316;5.372;2024-03-25T11:30:29;17.10;60.60
73277;DHT22;61501;43.316;5.372;2024-03-25T11:32:55;17.30;59.20
73277;DHT22;61501;43.316;5.372;2024-03-25T11:35:21;17.20;59.30
73277;DHT22;61501;43.316;5.372;2024-03-25T11:37:47;17.30;59.50
73277;DHT22;61501;43.316;5.372;2024-03-25T11:40:13;17.40;59.10
73277;DHT22;61501;43.316;5.372;2024-03-25T11:42:43;17.40;65.40
73277;DHT22;61501;43.316;5.372;2024-03-25T11:47:46;17.10;72.10
73277;DHT22;61501;43.316;5.372;2024-03-25T11:50:13;17.20;71.60
73277;DHT22;61501;43.316;5.372;2024-03-25T11:52:39;17.40;71.60
73277;DHT22;61501;43.316;5.372;2024-03-25T11:55:05;17.40;71.30
73277;DHT22;61501;43.316;5.372;2024-03-25T11:57:31;17.80;70.20
73277;DHT22;61501;43.316;5.372;2024-03-25T11:59:58;17.90;67.90
73277;DHT22;61501;43.316;5.372;2024-03-25T12:02:25;17.80;68.60
73277;DHT22;61501;43.316;5.372;2024-03-25T12:04:51;17.60;68.20
73277;DHT22;61501;43.316;5.372;2024-03-25T12:07:17;17.60;68.30
73277;DHT22;61501;43.316;5.372;2024-03-25T12:09:43;18.00;68.30
73277;DHT22;61501;43.316;5.372;2024-03-25T12:12:27;18.10;66.70
73277;DHT22;61501;43.316;5.372;2024-03-25T12:14:57;18.10;67.30
73277;DHT22;61501;43.316;5.372;2024-03-25T12:17:23;18.50;64.50
73277;DHT22;61501;43.316;5.372;2024-03-25T12:20:08;18.60;61.80
73277;DHT22;61501;43.316;5.372;2024-03-25T12:22:38;18.40;60.90
73277;DHT22;61501;43.316;5.372;2024-03-25T12:25:05;18.20;61.90
73277;DHT22;61501;43.316;5.372;2024-03-25T12:27:38;18.20;62.90
73277;DHT22;61501;43.316;5.372;2024-03-25T12:30:07;18.00;63.70
73277;DHT22;61501;43.316;5.372;2024-03-25T12:32:44;18.30;62.40
73277;DHT22;61501;43.316;5.372;2024-03-25T12:35:15;18.50;60.80
73277;DHT22;61501;43.316;5.372;2024-03-25T12:37:45;18.60;60.60
73277;DHT22;61501;43.316;5.372;2024-03-25T12:40:25;18.50;62.20
73277;DHT22;61501;43.316;5.372;2024-03-25T12:42:54;18.50;62.90
73277;DHT22;61501;43.316;5.372;2024-03-25T12:45:23;18.60;62.90
73277;DHT22;61501;43.316;5.372;2024-03-25T12:47:49;19.00;62.10
73277;DHT22;61501;43.316;5.372;2024-03-25T12:50:15;19.90;61.20
73277;DHT22;61501;43.316;5.372;2024-03-25T12:52:41;20.20;60.00
73277;DHT22;61501;43.316;5.372;2024-03-25T12:55:06;19.80;61.60
73277;DHT22;61501;43.316;5.372;2024-03-25T12:57:32;19.50;62.50
73277;DHT22;61501;43.316;5.372;2024-03-25T12:59:57;18.80;63.70
73277;DHT22;61501;43.316;5.372;2024-03-25T13:02:24;18.70;64.40
73277;DHT22;61501;43.316;5.372;2024-03-25T13:04:49;18.30;64.90
73277;DHT22;61501;43.316;5.372;2024-03-25T13:07:15;17.80;66.20
73277;DHT22;61501;43.316;5.372;2024-03-25T13:09:41;17.40;67.70
73277;DHT22;61501;43.316;5.372;2024-03-25T13:12:06;17.10;69.70
73277;DHT22;61501;43.316;5.372;2024-03-25T13:14:32;16.80;71.10
73277;DHT22;61501;43.316;5.372;2024-03-25T13:16:58;16.70;71.80
73277;DHT22;61501;43.316;5.372;2024-03-25T13:19:26;16.70;72.40
73277;DHT22;61501;43.316;5.372;2024-03-25T13:21:55;16.50;72.60
73277;DHT22;61501;43.316;5.372;2024-03-25T13:24:20;16.50;73.00
73277;DHT22;61501;43.316;5.372;2024-03-25T13:26:46;16.40;73.20
73277;DHT22;61501;43.316;5.372;2024-03-25T13:29:12;16.30;74.10
73277;DHT22;61501;43.316;5.372;2024-03-25T13:31:37;16.10;75.00
73277;DHT22;61501;43.316;5.372;2024-03-25T13:34:03;16.20;75.20
73277;DHT22;61501;43.316;5.372;2024-03-25T13:36:29;16.20;77.90
73277;DHT22;61501;43.316;5.372;2024-03-25T13:38:54;16.10;81.00
73277;DHT22;61501;43.316;5.372;2024-03-25T13:41:20;15.90;83.00
73277;DHT22;61501;43.316;5.372;2024-03-25T13:43:50;16.00;83.10
73277;DHT22;61501;43.316;5.372;2024-03-25T13:46:16;15.90;83.40
73277;DHT22;61501;43.316;5.372;2024-03-25T13:48:42;15.80;83.70
73277;DHT22;61501;43.316;5.372;2024-03-25T13:51:07;15.80;82.50
73277;DHT22;61501;43.316;5.372;2024-03-25T13:53:33;15.90;83.20
73277;DHT22;61501;43.316;5.372;2024-03-25T13:55:59;15.90;83.80
73277;DHT22;61501;43.316;5.372;2024-03-25T13:58:26;16.00;83.20
73277;DHT22;61501;43.316;5.372;2024-03-25T14:00:51;16.00;83.50
73277;DHT22;61501;43.316;5.372;2024-03-25T14:03:17;16.00;83.80
73277;DHT22;61501;43.316;5.372;2024-03-25T14:05:44;16.10;84.00
73277;DHT22;61501;43.316;5.372;2024-03-25T14:08:10;16.10;83.90
73277;DHT22;61501;43.316;5.372;2024-03-25T14:10:35;16.10;83.40
73277;DHT22;61501;43.316;5.372;2024-03-25T14:13:01;16.10;82.80
73277;DHT22;61501;43.316;5.372;2024-03-25T14:15:27;16.00;82.20
73277;DHT22;61501;43.316;5.372;2024-03-25T14:17:52;16.20;82.00
73277;DHT22;61501;43.316;5.372;2024-03-25T14:20:18;16.20;83.10
73277;DHT22;61501;43.316;5.372;2024-03-25T14:22:44;16.30;82.20
73277;DHT22;61501;43.316;5.372;2024-03-25T14:25:09;16.50;81.70
73277;DHT22;61501;43.316;5.372;2024-03-25T14:27:35;16.50;81.00
73277;DHT22;61501;43.316;5.372;2024-03-25T14:30:01;16.40;81.90
73277;DHT22;61501;43.316;5.372;2024-03-25T14:32:26;16.30;82.30
73277;DHT22;61501;43.316;5.372;2024-03-25T14:34:52;16.20;82.90
73277;DHT22;61501;43.316;5.372;2024-03-25T14:37:18;16.30;82.50
73277;DHT22;61501;43.316;5.372;2024-03-25T14:39:43;16.30;82.30
73277;DHT22;61501;43.316;5.372;2024-03-25T14:42:10;16.30;81.10
73277;DHT22;61501;43.316;5.372;2024-03-25T14:44:39;16.20;82.40
73277;DHT22;61501;43.316;5.372;2024-03-25T14:47:05;16.20;83.00
73277;DHT22;61501;43.316;5.372;2024-03-25T14:49:31;16.00;84.20
73277;DHT22;61501;43.316;5.372;2024-03-25T14:51:57;16.00;84.90
73277;DHT22;61501;43.316;5.372;2024-03-25T14:54:23;15.90;86.10
73277;DHT22;61501;43.316;5.372;2024-03-25T14:56:49;15.90;87.70
73277;DHT22;61501;43.316;5.372;2024-03-25T14:59:15;15.80;90.20
73277;DHT22;61501;43.316;5.372;2024-03-25T15:01:40;15.80;91.10
73277;DHT22;61501;43.316;5.372;2024-03-25T15:04:06;15.70;91.40
73277;DHT22;61501;43.316;5.372;2024-03-25T15:06:33;15.70;91.90
73277;DHT22;61501;43.316;5.372;2024-03-25T15:08:59;15.80;91.60
73277;DHT22;61501;43.316;5.372;2024-03-25T15:11:25;15.70;91.50
73277;DHT22;61501;43.316;5.372;2024-03-25T15:13:52;15.60;91.60
73277;DHT22;61501;43.316;5.372;2024-03-25T15:16:18;15.60;91.00
73277;DHT22;61501;43.316;5.372;2024-03-25T15:18:44;15.70;91.20
73277;DHT22;61501;43.316;5.372;2024-03-25T15:21:09;15.70;90.80
73277;DHT22;61501;43.316;5.372;2024-03-25T15:23:35;15.60;91.40
73277;DHT22;61501;43.316;5.372;2024-03-25T15:26:01;15.70;92.50
73277;DHT22;61501;43.316;5.372;2024-03-25T15:28:26;15.90;93.00
73277;DHT22;61501;43.316;5.372;2024-03-25T15:30:54;16.00;92.00